Portada
METAR-TAF:

METAR-TAF

Aeropuertos :

Aeropuerto Internacional de Lusaka

Lusaka, Zambia

latitud: 15-19-51S, longitud: 028-27-09E, altitud: 1152 m

Observación

El informe se hizo hace 55 minutos, a las 11:00 UTC
Viento 3 kt con dirección variable
Temperatura 26°C
Humedad 32%
Presión 1022 hPa
Visibilidad 10 km o más
Escasas nubes a una altura de 3500 ft

METAR: FLKK 251100Z VRB03KT 9999 FEW035 26/08 Q1022

Hora: 13:55 (11:55 UTC)

Pronóstico

El informe se hizo hace 1 hora y 55 minutos, a las 10:00 UTC
Pronóstico válido del 25 a las 12 UTC al 26 a las 18 UTC
Viento 3 kt con dirección variable
Visibilidad 10 km o más
sin nubes por debajo de 1500 m y sin presencia de cumulonimbus.
Evolucionando progresivamente
del 26 a las 09 UTC al 26 a las 11 UTC
Viento 8 kt del norte-noroeste
Visibilidad 10 km o más
Cielo nuboso a una altura de 4000 ft

TAF: FLKK 251000Z 2512/2618 VRB03KT CAVOK BECMG 2609/2611 34008KT 9999 BKN040

Observaciones y pronósticos meteorológicos de más de 4000 aeropuertos (mensajes METAR y TAF).

Los puntos amarillos y rojos representan las estaciones disponibles.

Ponga el ratón en el punto deseado para ver el nombre de la estación.

Haga clic para ver las observaciones y los pronósticos meteorológicos.

Para cambiar el mapa : haga clic en los botones verdes con una cruz de color negro para hacer un zoom, en el botón verde con un guión para alejar o en las flechas verdes para mapas adyacentes.


METAR-TAF: